Webster, New Hampshire
Current Conditions -  °F | °C
As of 2:51 PM on Monday 24 Nov 2014 (Local Time) from KCON Reporting Station
Overcast Overcast  
Wind Chill: 66°   Ceiling: 2800
Heat Index: 66°   Visibility: 10mi
Dew Point: 59°   Wind: 10mph
Humidity: 78%   Direction: 170°S
Pressure: 29.52"   Gusts: NA
Location:  43.3208°N, 71.6638°W
Report Text: KCON 241951Z AUTO 17009KT 10SM BKN028 OVC034 19/15 A2952 RMK AO2 SLP999 T01890150
Loading
Personal Weather Stations






























Interactive Weather Map New forecast layout! Learn more

10-Day Weather Forecast

Advertisements
Track Severe Weather on mobile